sensor_id;sensor_type;location;lat;lon;timestamp;pressure;altitude;pressure_sealevel;temperature;humidity
30744;BME280;17486;46.738;7.622;2023-05-19T00:01:43;95446.34;;;12.75;60.90
30744;BME280;17486;46.738;7.622;2023-05-19T00:04:09;95452.50;;;12.74;60.67
30744;BME280;17486;46.738;7.622;2023-05-19T00:06:36;95442.91;;;12.75;60.80
30744;BME280;17486;46.738;7.622;2023-05-19T00:09:07;95446.28;;;12.77;61.27
30744;BME280;17486;46.738;7.622;2023-05-19T00:11:35;95441.06;;;12.77;60.90
30744;BME280;17486;46.738;7.622;2023-05-19T00:14:00;95435.81;;;12.77;60.98
30744;BME280;17486;46.738;7.622;2023-05-19T00:16:27;95439.38;;;12.76;61.09
30744;BME280;17486;46.738;7.622;2023-05-19T00:19:11;95436.94;;;12.73;61.06
30744;BME280;17486;46.738;7.622;2023-05-19T00:21:37;95415.72;;;12.63;61.08
30744;BME280;17486;46.738;7.622;2023-05-19T00:24:03;95437.03;;;12.71;61.53
30744;BME280;17486;46.738;7.622;2023-05-19T00:26:29;95429.28;;;12.70;61.20
30744;BME280;17486;46.738;7.622;2023-05-19T00:28:54;95432.13;;;12.65;61.27
30744;BME280;17486;46.738;7.622;2023-05-19T00:31:19;95439.81;;;12.68;61.50
30744;BME280;17486;46.738;7.622;2023-05-19T00:33:45;95435.50;;;12.67;61.73
30744;BME280;17486;46.738;7.622;2023-05-19T00:36:11;95436.44;;;12.66;61.73
30744;BME280;17486;46.738;7.622;2023-05-19T00:38:36;95426.00;;;12.66;62.12
30744;BME280;17486;46.738;7.622;2023-05-19T00:41:03;95426.91;;;12.65;61.92
30744;BME280;17486;46.738;7.622;2023-05-19T00:43:29;95419.09;;;12.65;61.97
30744;BME280;17486;46.738;7.622;2023-05-19T00:45:56;95420.00;;;12.64;61.94
30744;BME280;17486;46.738;7.622;2023-05-19T00:48:21;95406.41;;;12.59;61.88
30744;BME280;17486;46.738;7.622;2023-05-19T00:50:48;95414.72;;;12.66;62.27
30744;BME280;17486;46.738;7.622;2023-05-19T00:53:16;95419.00;;;12.67;62.26
30744;BME280;17486;46.738;7.622;2023-05-19T00:55:42;95408.41;;;12.54;62.40
30744;BME280;17486;46.738;7.622;2023-05-19T00:58:09;95418.16;;;12.66;62.25
30744;BME280;17486;46.738;7.622;2023-05-19T01:00:36;95419.84;;;12.67;62.03
30744;BME280;17486;46.738;7.622;2023-05-19T01:03:06;95411.44;;;12.62;62.07
30744;BME280;17486;46.738;7.622;2023-05-19T01:05:41;95411.25;;;12.65;62.22
30744;BME280;17486;46.738;7.622;2023-05-19T01:08:08;95385.16;;;12.49;62.36
30744;BME280;17486;46.738;7.622;2023-05-19T01:10:35;95410.34;;;12.66;62.50
30744;BME280;17486;46.738;7.622;2023-05-19T01:13:04;95417.34;;;12.66;62.38
30744;BME280;17486;46.738;7.622;2023-05-19T01:15:33;95394.69;;;12.50;62.20
30744;BME280;17486;46.738;7.622;2023-05-19T01:18:04;95413.94;;;12.64;62.56
30744;BME280;17486;46.738;7.622;2023-05-19T01:20:46;95404.63;;;12.59;62.38
30744;BME280;17486;46.738;7.622;2023-05-19T01:23:33;95405.53;;;12.58;62.39
30744;BME280;17486;46.738;7.622;2023-05-19T01:26:18;95398.13;;;12.51;62.24
30744;BME280;17486;46.738;7.622;2023-05-19T01:31:37;95379.78;;;12.36;62.61
30744;BME280;17486;46.738;7.622;2023-05-19T01:34:05;95395.88;;;12.44;62.64
30744;BME280;17486;46.738;7.622;2023-05-19T01:36:31;95403.09;;;12.39;62.83
30744;BME280;17486;46.738;7.622;2023-05-19T01:38:58;95381.47;;;12.21;62.86
30744;BME280;17486;46.738;7.622;2023-05-19T01:41:25;95381.56;;;12.20;63.31
30744;BME280;17486;46.738;7.622;2023-05-19T01:43:51;95378.94;;;12.20;63.38
30744;BME280;17486;46.738;7.622;2023-05-19T01:46:18;95403.59;;;12.30;63.50
30744;BME280;17486;46.738;7.622;2023-05-19T01:48:44;95395.25;;;12.23;63.52
30744;BME280;17486;46.738;7.622;2023-05-19T01:51:11;95393.66;;;12.21;63.50
30744;BME280;17486;46.738;7.622;2023-05-19T01:53:36;95389.38;;;12.20;63.26
30744;BME280;17486;46.738;7.622;2023-05-19T01:56:04;95388.88;;;12.13;63.83
30744;BME280;17486;46.738;7.622;2023-05-19T01:58:42;95394.75;;;12.17;63.65
30744;BME280;17486;46.738;7.622;2023-05-19T02:01:23;95387.88;;;12.16;64.08
30744;BME280;17486;46.738;7.622;2023-05-19T02:09:23;95383.81;;;12.10;63.78
30744;BME280;17486;46.738;7.622;2023-05-19T02:12:02;95396.91;;;12.08;63.49
30744;BME280;17486;46.738;7.622;2023-05-19T02:14:38;95368.28;;;11.91;63.82
30744;BME280;17486;46.738;7.622;2023-05-19T02:17:06;95389.41;;;12.02;63.34
30744;BME280;17486;46.738;7.622;2023-05-19T02:19:38;95370.13;;;11.89;63.43
30744;BME280;17486;46.738;7.622;2023-05-19T02:22:04;95392.88;;;12.03;63.52
30744;BME280;17486;46.738;7.622;2023-05-19T02:24:30;95388.69;;;12.00;63.43
30744;BME280;17486;46.738;7.622;2023-05-19T02:26:55;95389.50;;;12.01;63.84
30744;BME280;17486;46.738;7.622;2023-05-19T02:29:20;95388.69;;;12.00;64.17
30744;BME280;17486;46.738;7.622;2023-05-19T02:31:46;95383.47;;;12.00;63.76
30744;BME280;17486;46.738;7.622;2023-05-19T02:34:12;95369.44;;;11.85;63.87
30744;BME280;17486;46.738;7.622;2023-05-19T02:36:38;95364.38;;;11.82;64.07
30744;BME280;17486;46.738;7.622;2023-05-19T02:39:05;95388.81;;;11.97;63.77
30744;BME280;17486;46.738;7.622;2023-05-19T02:41:30;95387.19;;;11.94;63.85
30744;BME280;17486;46.738;7.622;2023-05-19T02:43:56;95393.34;;;11.93;63.90
30744;BME280;17486;46.738;7.622;2023-05-19T02:46:22;95381.72;;;11.83;63.84
30744;BME280;17486;46.738;7.622;2023-05-19T02:48:47;95386.53;;;11.91;63.99
30744;BME280;17486;46.738;7.622;2023-05-19T02:51:13;95385.75;;;11.89;64.08
30744;BME280;17486;46.738;7.622;2023-05-19T02:53:38;95379.75;;;11.87;63.99
30744;BME280;17486;46.738;7.622;2023-05-19T02:56:03;95369.09;;;11.75;64.06
30744;BME280;17486;46.738;7.622;2023-05-19T02:58:29;95381.63;;;11.85;63.56
30744;BME280;17486;46.738;7.622;2023-05-19T03:00:54;95351.41;;;11.65;64.15
30744;BME280;17486;46.738;7.622;2023-05-19T03:03:20;95363.97;;;11.74;64.48
30744;BME280;17486;46.738;7.622;2023-05-19T03:05:45;95377.81;;;11.74;64.47
30744;BME280;17486;46.738;7.622;2023-05-19T03:08:11;95380.59;;;11.71;63.90
30744;BME280;17486;46.738;7.622;2023-05-19T03:10:37;95381.50;;;11.70;63.93
30744;BME280;17486;46.738;7.622;2023-05-19T03:13:02;95364.84;;;11.57;64.35
30744;BME280;17486;46.738;7.622;2023-05-19T03:15:27;95385.19;;;11.66;64.21
30744;BME280;17486;46.738;7.622;2023-05-19T03:17:53;95357.63;;;11.44;64.07
30744;BME280;17486;46.738;7.622;2023-05-19T03:20:18;95382.91;;;11.60;64.72
30744;BME280;17486;46.738;7.622;2023-05-19T03:22:44;95377.84;;;11.57;64.32
30744;BME280;17486;46.738;7.622;2023-05-19T03:25:09;95382.38;;;11.53;64.23
30744;BME280;17486;46.738;7.622;2023-05-19T03:27:34;95371.34;;;11.48;64.22
30744;BME280;17486;46.738;7.622;2023-05-19T03:30:00;95382.69;;;11.47;64.25
30744;BME280;17486;46.738;7.622;2023-05-19T03:32:25;95380.25;;;11.44;64.33
30744;BME280;17486;46.738;7.622;2023-05-19T03:34:50;95382.94;;;11.42;64.24
30744;BME280;17486;46.738;7.622;2023-05-19T03:37:16;95378.19;;;11.33;64.13
30744;BME280;17486;46.738;7.622;2023-05-19T03:39:41;95379.81;;;11.36;64.53
30744;BME280;17486;46.738;7.622;2023-05-19T03:42:07;95387.53;;;11.37;64.39
30744;BME280;17486;46.738;7.622;2023-05-19T03:44:32;95389.34;;;11.35;64.44
30744;BME280;17486;46.738;7.622;2023-05-19T03:46:57;95381.84;;;11.29;64.70
30744;BME280;17486;46.738;7.622;2023-05-19T03:49:23;95364.16;;;11.18;63.96
30744;BME280;17486;46.738;7.622;2023-05-19T03:51:48;95393.66;;;11.36;63.99
30744;BME280;17486;46.738;7.622;2023-05-19T03:54:13;95396.16;;;11.38;64.50
30744;BME280;17486;46.738;7.622;2023-05-19T03:56:41;95361.56;;;11.18;64.05
30744;BME280;17486;46.738;7.622;2023-05-19T03:59:06;95394.47;;;11.37;64.00
30744;BME280;17486;46.738;7.622;2023-05-19T04:01:32;95392.81;;;11.36;64.62
30744;BME280;17486;46.738;7.622;2023-05-19T04:03:57;95391.97;;;11.35;64.26
30744;BME280;17486;46.738;7.622;2023-05-19T04:06:23;95395.47;;;11.34;63.91
30744;BME280;17486;46.738;7.622;2023-05-19T04:08:48;95387.84;;;11.31;64.31
30744;BME280;17486;46.738;7.622;2023-05-19T04:11:14;95390.25;;;11.34;64.02
30744;BME280;17486;46.738;7.622;2023-05-19T04:13:39;95404.22;;;11.33;64.03
30744;BME280;17486;46.738;7.622;2023-05-19T04:16:05;95392.94;;;11.33;63.98
30744;BME280;17486;46.738;7.622;2023-05-19T04:18:31;95393.88;;;11.32;64.29
30744;BME280;17486;46.738;7.622;2023-05-19T04:20:56;95394.72;;;11.32;64.05
30744;BME280;17486;46.738;7.622;2023-05-19T04:23:21;95375.44;;;11.19;64.49
30744;BME280;17486;46.738;7.622;2023-05-19T04:25:47;95393.13;;;11.30;63.85
30744;BME280;17486;46.738;7.622;2023-05-19T04:28:13;95392.25;;;11.29;64.29
30744;BME280;17486;46.738;7.622;2023-05-19T04:30:39;95393.34;;;11.25;64.24
30744;BME280;17486;46.738;7.622;2023-05-19T04:33:04;95396.72;;;11.27;64.69
30744;BME280;17486;46.738;7.622;2023-05-19T04:35:30;95389.03;;;11.24;64.42
30744;BME280;17486;46.738;7.622;2023-05-19T04:37:55;95395.25;;;11.21;64.35
30744;BME280;17486;46.738;7.622;2023-05-19T04:40:21;95377.84;;;11.04;64.59
30744;BME280;17486;46.738;7.622;2023-05-19T04:42:48;95399.78;;;11.18;64.33
30744;BME280;17486;46.738;7.622;2023-05-19T04:45:14;95401.31;;;11.22;64.49
30744;BME280;17486;46.738;7.622;2023-05-19T04:47:40;95404.66;;;11.24;64.87
30744;BME280;17486;46.738;7.622;2023-05-19T04:50:06;95406.44;;;11.23;64.81
30744;BME280;17486;46.738;7.622;2023-05-19T04:52:32;95410.03;;;11.21;64.39
30744;BME280;17486;46.738;7.622;2023-05-19T04:54:57;95413.47;;;11.21;64.13
30744;BME280;17486;46.738;7.622;2023-05-19T04:57:23;95404.81;;;11.21;64.35
30744;BME280;17486;46.738;7.622;2023-05-19T04:59:48;95404.81;;;11.21;64.39
30744;BME280;17486;46.738;7.622;2023-05-19T05:02:14;95404.00;;;11.20;63.66
30744;BME280;17486;46.738;7.622;2023-05-19T05:04:40;95410.84;;;11.21;64.10
30744;BME280;17486;46.738;7.622;2023-05-19T05:07:08;95405.00;;;11.18;64.14
30744;BME280;17486;46.738;7.622;2023-05-19T05:09:34;95409.88;;;11.24;63.44
30744;BME280;17486;46.738;7.622;2023-05-19T05:12:00;95377.81;;;11.06;63.59
30744;BME280;17486;46.738;7.622;2023-05-19T05:14:26;95407.06;;;11.28;62.98
30744;BME280;17486;46.738;7.622;2023-05-19T05:16:52;95406.06;;;11.31;62.91
30744;BME280;17486;46.738;7.622;2023-05-19T05:19:17;95389.28;;;11.19;62.96
30744;BME280;17486;46.738;7.622;2023-05-19T05:21:43;95405.75;;;11.37;63.27
30744;BME280;17486;46.738;7.622;2023-05-19T05:24:09;95417.84;;;11.38;62.80
30744;BME280;17486;46.738;7.622;2023-05-19T05:26:35;95397.88;;;11.39;62.77
30744;BME280;17486;46.738;7.622;2023-05-19T05:29:01;95361.56;;;11.18;62.72
30744;BME280;17486;46.738;7.622;2023-05-19T05:31:27;95405.03;;;11.51;62.68
30744;BME280;17486;46.738;7.622;2023-05-19T05:33:53;95402.31;;;11.54;62.58
30744;BME280;17486;46.738;7.622;2023-05-19T05:36:18;95404.66;;;11.59;62.38
30744;BME280;17486;46.738;7.622;2023-05-19T05:38:43;95406.94;;;11.65;61.99
30744;BME280;17486;46.738;7.622;2023-05-19T05:41:09;95393.84;;;11.67;62.64
30744;BME280;17486;46.738;7.622;2023-05-19T05:43:34;95385.19;;;11.66;62.46
30744;BME280;17486;46.738;7.622;2023-05-19T05:46:00;95400.09;;;11.80;62.42
30744;BME280;17486;46.738;7.622;2023-05-19T05:48:25;95403.31;;;11.85;62.32
30744;BME280;17486;46.738;7.622;2023-05-19T05:50:51;95403.06;;;11.90;61.72
30744;BME280;17486;46.738;7.622;2023-05-19T05:53:18;95415.84;;;11.94;61.78
30744;BME280;17486;46.738;7.622;2023-05-19T05:55:47;95387.59;;;11.87;61.55
30744;BME280;17486;46.738;7.622;2023-05-19T05:58:12;95403.38;;;12.01;61.56
30744;BME280;17486;46.738;7.622;2023-05-19T06:00:39;95402.22;;;12.07;61.34
30744;BME280;17486;46.738;7.622;2023-05-19T06:03:07;95389.41;;;12.02;61.36
30744;BME280;17486;46.738;7.622;2023-05-19T06:05:34;95364.91;;;11.89;61.26
30744;BME280;17486;46.738;7.622;2023-05-19T06:07:59;95402.66;;;12.15;61.34
30744;BME280;17486;46.738;7.622;2023-05-19T06:10:24;95404.06;;;12.21;61.47
30744;BME280;17486;46.738;7.622;2023-05-19T06:12:50;95402.16;;;12.24;61.26
30744;BME280;17486;46.738;7.622;2023-05-19T06:15:15;95401.16;;;12.27;61.25
30744;BME280;17486;46.738;7.622;2023-05-19T06:17:41;95404.34;;;12.32;61.00
30744;BME280;17486;46.738;7.622;2023-05-19T06:20:06;95403.53;;;12.32;60.61
30744;BME280;17486;46.738;7.622;2023-05-19T06:22:34;95399.97;;;12.33;60.83
30744;BME280;17486;46.738;7.622;2023-05-19T06:24:59;95375.41;;;12.21;60.66
30744;BME280;17486;46.738;7.622;2023-05-19T06:27:25;95402.34;;;12.37;60.52
30744;BME280;17486;46.738;7.622;2023-05-19T06:29:50;95410.75;;;12.42;60.58
30744;BME280;17486;46.738;7.622;2023-05-19T06:32:16;95401.09;;;12.44;60.50
30744;BME280;17486;46.738;7.622;2023-05-19T06:34:41;95367.09;;;12.30;60.35
30744;BME280;17486;46.738;7.622;2023-05-19T06:37:06;95400.72;;;12.51;60.33
30744;BME280;17486;46.738;7.622;2023-05-19T06:39:32;95406.72;;;12.53;60.16
30744;BME280;17486;46.738;7.622;2023-05-19T06:41:57;95406.53;;;12.56;59.86
30744;BME280;17486;46.738;7.622;2023-05-19T06:44:23;95386.28;;;12.45;59.83
30744;BME280;17486;46.738;7.622;2023-05-19T06:46:49;95394.78;;;12.49;59.75
30744;BME280;17486;46.738;7.622;2023-05-19T06:49:14;95412.94;;;12.66;59.79
30744;BME280;17486;46.738;7.622;2023-05-19T06:51:40;95410.34;;;12.66;59.36
30744;BME280;17486;46.738;7.622;2023-05-19T06:54:05;95366.81;;;12.51;59.62
30744;BME280;17486;46.738;7.622;2023-05-19T06:56:30;95405.53;;;12.74;59.54
30744;BME280;17486;46.738;7.622;2023-05-19T06:58:56;95387.44;;;12.71;59.04
30744;BME280;17486;46.738;7.622;2023-05-19T07:01:21;95399.44;;;12.90;58.69
30744;BME280;17486;46.738;7.622;2023-05-19T07:03:47;95398.09;;;12.99;58.70
30744;BME280;17486;46.738;7.622;2023-05-19T07:06:12;95379.25;;;12.93;58.64
30744;BME280;17486;46.738;7.622;2023-05-19T07:08:37;95393.66;;;13.15;58.40
30744;BME280;17486;46.738;7.622;2023-05-19T07:11:03;95395.00;;;13.22;58.13
30744;BME280;17486;46.738;7.622;2023-05-19T07:13:29;95380.94;;;13.25;57.91
30744;BME280;17486;46.738;7.622;2023-05-19T07:15:55;95383.81;;;13.36;58.14
30744;BME280;17486;46.738;7.622;2023-05-19T07:18:21;95380.16;;;13.39;57.69
30744;BME280;17486;46.738;7.622;2023-05-19T07:20:46;95391.56;;;13.52;57.78
30744;BME280;17486;46.738;7.622;2023-05-19T07:23:11;95392.78;;;13.61;57.59
30744;BME280;17486;46.738;7.622;2023-05-19T07:25:37;95392.25;;;13.70;57.06
30744;BME280;17486;46.738;7.622;2023-05-19T07:28:02;95390.22;;;13.75;57.26
30744;BME280;17486;46.738;7.622;2023-05-19T07:30:28;95378.22;;;13.71;56.51
30744;BME280;17486;46.738;7.622;2023-05-19T07:32:54;95387.78;;;13.87;56.52
30744;BME280;17486;46.738;7.622;2023-05-19T07:35:19;95381.31;;;13.92;56.58
30744;BME280;17486;46.738;7.622;2023-05-19T07:37:47;95388.69;;;14.00;56.21
30744;BME280;17486;46.738;7.622;2023-05-19T07:40:13;95355.19;;;13.92;55.81
30744;BME280;17486;46.738;7.622;2023-05-19T07:42:38;95381.88;;;14.12;55.78
30744;BME280;17486;46.738;7.622;2023-05-19T07:45:04;95373.56;;;14.20;55.67
30744;BME280;17486;46.738;7.622;2023-05-19T07:47:30;95347.25;;;14.08;55.47
30744;BME280;17486;46.738;7.622;2023-05-19T07:49:55;95356.09;;;14.20;55.06
30744;BME280;17486;46.738;7.622;2023-05-19T07:52:21;95374.31;;;14.36;54.77
30744;BME280;17486;46.738;7.622;2023-05-19T07:54:46;95378.19;;;14.43;54.71
30744;BME280;17486;46.738;7.622;2023-05-19T07:57:11;95329.66;;;14.25;54.53
30744;BME280;17486;46.738;7.622;2023-05-19T07:59:38;95368.81;;;14.54;54.25
30744;BME280;17486;46.738;7.622;2023-05-19T08:02:04;95383.94;;;14.63;53.89
30744;BME280;17486;46.738;7.622;2023-05-19T08:04:29;95372.31;;;14.69;53.87
30744;BME280;17486;46.738;7.622;2023-05-19T08:06:55;95372.75;;;14.75;53.94
30744;BME280;17486;46.738;7.622;2023-05-19T08:09:20;95370.47;;;14.84;53.60
30744;BME280;17486;46.738;7.622;2023-05-19T08:11:45;95362.00;;;14.93;53.81
30744;BME280;17486;46.738;7.622;2023-05-19T08:14:11;95360.47;;;15.03;53.82
30744;BME280;17486;46.738;7.622;2023-05-19T08:16:37;95353.97;;;15.09;53.51
30744;BME280;17486;46.738;7.622;2023-05-19T08:19:02;95347.63;;;15.26;53.48
30744;BME280;17486;46.738;7.622;2023-05-19T08:21:29;95352.38;;;15.47;53.29
30744;BME280;17486;46.738;7.622;2023-05-19T08:23:59;95353.97;;;15.62;52.83
30744;BME280;17486;46.738;7.622;2023-05-19T08:26:24;95342.53;;;15.76;52.43
30744;BME280;17486;46.738;7.622;2023-05-19T08:28:50;95343.50;;;15.88;51.17
30744;BME280;17486;46.738;7.622;2023-05-19T08:31:16;95345.59;;;15.96;50.46
30744;BME280;17486;46.738;7.622;2023-05-19T08:33:42;95315.06;;;15.69;49.46
30744;BME280;17486;46.738;7.622;2023-05-19T08:36:08;95344.84;;;15.81;50.32
30744;BME280;17486;46.738;7.622;2023-05-19T08:38:33;95320.94;;;15.72;50.68
30744;BME280;17486;46.738;7.622;2023-05-19T08:40:58;95321.63;;;15.74;50.52
30744;BME280;17486;46.738;7.622;2023-05-19T08:43:24;95324.75;;;15.81;50.90
30744;BME280;17486;46.738;7.622;2023-05-19T08:45:51;95305.91;;;15.74;50.52
30744;BME280;17486;46.738;7.622;2023-05-19T08:48:18;95330.91;;;15.93;51.18
30744;BME280;17486;46.738;7.622;2023-05-19T08:53:58;95335.00;;;15.97;50.70
30744;BME280;17486;46.738;7.622;2023-05-19T08:56:25;95322.47;;;16.01;50.74
30744;BME280;17486;46.738;7.622;2023-05-19T08:58:51;95332.66;;;16.05;51.04
30744;BME280;17486;46.738;7.622;2023-05-19T09:01:18;95325.31;;;16.11;51.08
30744;BME280;17486;46.738;7.622;2023-05-19T09:03:45;95327.28;;;16.20;50.63
30744;BME280;17486;46.738;7.622;2023-05-19T09:06:11;95325.28;;;16.23;51.04
30744;BME280;17486;46.738;7.622;2023-05-19T09:08:38;95318.75;;;16.29;50.88
30744;BME280;17486;46.738;7.622;2023-05-19T09:11:03;95311.81;;;16.28;50.22
30744;BME280;17486;46.738;7.622;2023-05-19T09:13:29;95315.34;;;16.40;50.40
30744;BME280;17486;46.738;7.622;2023-05-19T09:15:55;95311.47;;;16.46;50.44
30744;BME280;17486;46.738;7.622;2023-05-19T09:18:23;95314.81;;;16.48;50.02
30744;BME280;17486;46.738;7.622;2023-05-19T09:20:49;95311.97;;;16.51;49.75
30744;BME280;17486;46.738;7.622;2023-05-19T09:23:16;95313.09;;;16.60;49.21
30744;BME280;17486;46.738;7.622;2023-05-19T09:25:51;95308.13;;;16.68;49.10
30744;BME280;17486;46.738;7.622;2023-05-19T09:30:47;95308.47;;;16.87;48.22
30744;BME280;17486;46.738;7.622;2023-05-19T09:33:18;95287.28;;;16.78;48.08
30744;BME280;17486;46.738;7.622;2023-05-19T09:35:46;95308.50;;;16.99;48.26
30744;BME280;17486;46.738;7.622;2023-05-19T09:38:17;95318.53;;;16.94;48.01
30744;BME280;17486;46.738;7.622;2023-05-19T09:40:43;95310.06;;;16.90;47.93
30744;BME280;17486;46.738;7.622;2023-05-19T09:43:08;95305.72;;;16.89;48.04
30744;BME280;17486;46.738;7.622;2023-05-19T09:45:34;95304.81;;;16.90;48.13
30744;BME280;17486;46.738;7.622;2023-05-19T09:48:02;95300.66;;;16.86;47.90
30744;BME280;17486;46.738;7.622;2023-05-19T09:50:28;95307.31;;;16.92;48.10
30744;BME280;17486;46.738;7.622;2023-05-19T09:52:55;95295.00;;;16.92;48.28
30744;BME280;17486;46.738;7.622;2023-05-19T09:55:24;95283.66;;;16.92;48.29
30744;BME280;17486;46.738;7.622;2023-05-19T09:57:53;95296.38;;;17.09;48.49
30744;BME280;17486;46.738;7.622;2023-05-19T10:00:19;95287.38;;;17.00;47.32
30744;BME280;17486;46.738;7.622;2023-05-19T10:02:46;95288.44;;;16.98;47.40
30744;BME280;17486;46.738;7.622;2023-05-19T10:05:19;95296.72;;;17.04;47.65
30744;BME280;17486;46.738;7.622;2023-05-19T10:07:52;95293.63;;;17.11;47.81
30744;BME280;17486;46.738;7.622;2023-05-19T10:10:19;95300.81;;;17.20;47.64
30744;BME280;17486;46.738;7.622;2023-05-19T10:12:45;95286.03;;;17.19;46.97
30744;BME280;17486;46.738;7.622;2023-05-19T10:15:14;95283.59;;;17.16;47.14
30744;BME280;17486;46.738;7.622;2023-05-19T10:17:40;95285.91;;;17.20;47.47
30744;BME280;17486;46.738;7.622;2023-05-19T10:20:14;95287.47;;;17.23;47.78
30744;BME280;17486;46.738;7.622;2023-05-19T10:22:42;95281.97;;;17.26;47.54
30744;BME280;17486;46.738;7.622;2023-05-19T10:25:09;95291.91;;;17.34;47.22
30744;BME280;17486;46.738;7.622;2023-05-19T10:27:38;95287.50;;;17.46;47.31
30744;BME280;17486;46.738;7.622;2023-05-19T10:30:08;95295.53;;;17.55;46.63
30744;BME280;17486;46.738;7.622;2023-05-19T10:32:37;95291.13;;;17.67;46.76
30744;BME280;17486;46.738;7.622;2023-05-19T10:35:27;95285.84;;;17.79;46.71
30744;BME280;17486;46.738;7.622;2023-05-19T10:38:14;95289.69;;;17.86;46.21
30744;BME280;17486;46.738;7.622;2023-05-19T10:40:59;95292.78;;;17.80;45.94
30744;BME280;17486;46.738;7.622;2023-05-19T10:46:13;95266.84;;;17.64;45.85
30744;BME280;17486;46.738;7.622;2023-05-19T10:48:43;95292.06;;;17.78;45.80
30744;BME280;17486;46.738;7.622;2023-05-19T10:51:08;95290.63;;;17.73;45.81
30744;BME280;17486;46.738;7.622;2023-05-19T10:53:39;95279.41;;;17.71;46.09
30744;BME280;17486;46.738;7.622;2023-05-19T10:56:05;95277.09;;;17.67;46.32
30744;BME280;17486;46.738;7.622;2023-05-19T10:58:36;95286.91;;;17.76;46.41
30744;BME280;17486;46.738;7.622;2023-05-19T11:01:06;95284.88;;;17.80;46.35
30744;BME280;17486;46.738;7.622;2023-05-19T11:06:29;95285.72;;;17.80;46.21
30744;BME280;17486;46.738;7.622;2023-05-19T11:09:01;95275.44;;;17.66;45.22
30744;BME280;17486;46.738;7.622;2023-05-19T11:14:17;95282.97;;;17.70;45.93
30744;BME280;17486;46.738;7.622;2023-05-19T11:16:46;95274.00;;;17.73;46.30
30744;BME280;17486;46.738;7.622;2023-05-19T11:19:35;95272.47;;;17.82;46.68
30744;BME280;17486;46.738;7.622;2023-05-19T11:22:11;95266.72;;;17.99;46.66
30744;BME280;17486;46.738;7.622;2023-05-19T11:24:47;95252.25;;;18.05;46.54
30744;BME280;17486;46.738;7.622;2023-05-19T11:27:30;95277.69;;;18.38;45.86
30744;BME280;17486;46.738;7.622;2023-05-19T11:30:00;95275.50;;;18.55;45.63
30744;BME280;17486;46.738;7.622;2023-05-19T11:32:31;95268.75;;;18.62;45.20
30744;BME280;17486;46.738;7.622;2023-05-19T11:35:00;95268.88;;;18.61;45.16
30744;BME280;17486;46.738;7.622;2023-05-19T11:37:27;95275.09;;;18.60;44.76
30744;BME280;17486;46.738;7.622;2023-05-19T11:39:56;95266.88;;;18.53;44.87
30744;BME280;17486;46.738;7.622;2023-05-19T11:42:22;95262.09;;;18.47;45.02
30744;BME280;17486;46.738;7.622;2023-05-19T11:44:48;95262.94;;;18.47;45.27
30744;BME280;17486;46.738;7.622;2023-05-19T11:47:14;95252.41;;;18.47;44.75
30744;BME280;17486;46.738;7.622;2023-05-19T11:49:44;95252.41;;;18.47;44.88
30744;BME280;17486;46.738;7.622;2023-05-19T11:52:10;95258.50;;;18.48;44.64
30744;BME280;17486;46.738;7.622;2023-05-19T11:54:35;95254.31;;;18.45;44.72
30744;BME280;17486;46.738;7.622;2023-05-19T11:57:02;95251.81;;;18.44;44.41
30744;BME280;17486;46.738;7.622;2023-05-19T11:59:36;95255.41;;;18.43;44.86
30744;BME280;17486;46.738;7.622;2023-05-19T12:02:21;95231.03;;;18.29;44.89
30744;BME280;17486;46.738;7.622;2023-05-19T12:04:47;95223.72;;;18.33;44.79
30744;BME280;17486;46.738;7.622;2023-05-19T12:07:17;95245.69;;;18.43;44.72
30744;BME280;17486;46.738;7.622;2023-05-19T12:09:46;95246.28;;;18.47;44.86
30744;BME280;17486;46.738;7.622;2023-05-19T12:12:15;95249.25;;;18.53;44.44
30744;BME280;17486;46.738;7.622;2023-05-19T12:14:43;95247.94;;;18.59;44.53
30744;BME280;17486;46.738;7.622;2023-05-19T12:17:14;95253.53;;;18.66;44.62
30744;BME280;17486;46.738;7.622;2023-05-19T12:19:42;95256.38;;;18.74;44.38
30744;BME280;17486;46.738;7.622;2023-05-19T12:22:08;95248.97;;;18.68;44.17
30744;BME280;17486;46.738;7.622;2023-05-19T12:24:37;95255.59;;;18.62;44.45
30744;BME280;17486;46.738;7.622;2023-05-19T12:29:31;95251.56;;;18.47;44.88
30744;BME280;17486;46.738;7.622;2023-05-19T12:31:57;95257.44;;;18.39;45.03
30744;BME280;17486;46.738;7.622;2023-05-19T12:34:23;95227.47;;;18.19;44.91
30744;BME280;17486;46.738;7.622;2023-05-19T12:36:48;95259.88;;;18.31;44.79
30744;BME280;17486;46.738;7.622;2023-05-19T12:39:14;95250.91;;;18.22;44.90
30744;BME280;17486;46.738;7.622;2023-05-19T12:41:39;95247.72;;;18.07;45.35
30744;BME280;17486;46.738;7.622;2023-05-19T12:44:14;95238.13;;;17.95;45.68
30744;BME280;17486;46.738;7.622;2023-05-19T12:46:40;95260.25;;;18.03;45.85
30744;BME280;17486;46.738;7.622;2023-05-19T12:49:05;95248.19;;;17.89;45.76
30744;BME280;17486;46.738;7.622;2023-05-19T12:51:30;95252.59;;;17.89;46.20
30744;BME280;17486;46.738;7.622;2023-05-19T12:53:56;95254.53;;;17.87;46.48
30744;BME280;17486;46.738;7.622;2023-05-19T12:56:24;95238.00;;;17.73;46.63
30744;BME280;17486;46.738;7.622;2023-05-19T12:58:53;95249.34;;;17.85;46.99
30744;BME280;17486;46.738;7.622;2023-05-19T13:01:18;95257.72;;;17.90;46.83
30744;BME280;17486;46.738;7.622;2023-05-19T13:03:44;95247.31;;;17.89;46.60
30744;BME280;17486;46.738;7.622;2023-05-19T13:06:10;95257.88;;;18.00;46.31
30744;BME280;17486;46.738;7.622;2023-05-19T13:08:37;95248.41;;;18.09;46.20
30744;BME280;17486;46.738;7.622;2023-05-19T13:11:05;95249.59;;;18.16;46.30
30744;BME280;17486;46.738;7.622;2023-05-19T13:13:30;95240.97;;;18.26;45.88
30744;BME280;17486;46.738;7.622;2023-05-19T13:15:55;95250.66;;;18.25;45.62
30744;BME280;17486;46.738;7.622;2023-05-19T13:18:21;95243.84;;;18.22;45.85
30744;BME280;17486;46.738;7.622;2023-05-19T13:20:46;95234.41;;;18.09;45.75
30744;BME280;17486;46.738;7.622;2023-05-19T13:23:14;95247.09;;;18.15;46.02
30744;BME280;17486;46.738;7.622;2023-05-19T13:25:40;95245.69;;;18.11;45.82